createdAt,value
2022-08-21T00:03:32.878Z,16.30
2022-08-21T00:07:37.023Z,16.30
2022-08-21T00:11:40.634Z,16.20
2022-08-21T00:15:45.522Z,16.20
2022-08-21T00:19:48.294Z,16.10
2022-08-21T00:23:52.410Z,16.10
2022-08-21T00:27:55.551Z,16.10
2022-08-21T00:31:58.332Z,16.00
2022-08-21T00:36:01.229Z,16.00
2022-08-21T00:40:06.707Z,16.00
2022-08-21T00:44:14.389Z,15.90
2022-08-21T00:48:17.779Z,16.00
2022-08-21T00:52:25.511Z,16.00
2022-08-21T00:56:30.604Z,16.00
2022-08-21T01:00:37.180Z,15.90
2022-08-21T01:04:40.327Z,15.80
2022-08-21T01:08:46.802Z,15.80
2022-08-21T01:12:52.728Z,15.70
2022-08-21T01:16:57.150Z,15.70
2022-08-21T01:21:08.223Z,15.70
2022-08-21T01:25:13.177Z,15.60
2022-08-21T01:29:31.208Z,15.60
2022-08-21T01:33:34.029Z,15.60
2022-08-21T01:37:38.207Z,15.60
2022-08-21T01:41:40.999Z,15.50
2022-08-21T01:45:43.873Z,15.50
2022-08-21T01:49:46.831Z,15.50
2022-08-21T01:53:51.182Z,15.40
2022-08-21T01:57:54.150Z,15.30
2022-08-21T02:01:56.991Z,15.30
2022-08-21T02:06:00.286Z,15.30
2022-08-21T02:10:06.856Z,15.30
2022-08-21T02:14:10.127Z,15.20
2022-08-21T02:18:13.231Z,15.20
2022-08-21T02:22:16.042Z,15.10
2022-08-21T02:26:20.449Z,15.10
2022-08-21T02:30:26.488Z,15.10
2022-08-21T02:34:29.524Z,15.10
2022-08-21T02:38:35.455Z,15.10
2022-08-21T02:42:39.934Z,15.10
2022-08-21T02:46:42.712Z,15.00
2022-08-21T02:50:48.531Z,15.00
2022-08-21T02:54:51.307Z,14.90
2022-08-21T02:58:55.423Z,14.90
2022-08-21T03:02:59.173Z,14.90
2022-08-21T03:07:02.410Z,14.90
2022-08-21T03:11:06.317Z,14.90
2022-08-21T03:15:15.337Z,14.90
2022-08-21T03:19:18.160Z,14.90
2022-08-21T03:23:20.927Z,14.80
2022-08-21T03:27:27.579Z,14.90
2022-08-21T03:31:33.357Z,14.90
2022-08-21T03:35:36.403Z,14.80
2022-08-21T03:39:39.675Z,14.80
2022-08-21T03:43:42.462Z,14.70
2022-08-21T03:47:56.671Z,14.70
2022-08-21T03:51:59.772Z,14.60
2022-08-21T03:56:02.722Z,14.60
2022-08-21T04:00:08.909Z,14.50
2022-08-21T04:04:13.013Z,14.60
2022-08-21T04:08:19.534Z,14.50
2022-08-21T04:12:23.027Z,14.50
2022-08-21T04:16:25.765Z,14.40
2022-08-21T04:20:30.146Z,14.40
2022-08-21T04:24:32.972Z,14.40
2022-08-21T04:28:36.822Z,14.50
2022-08-21T04:32:40.378Z,14.50
2022-08-21T04:36:44.491Z,14.60
2022-08-21T04:40:47.317Z,14.60
2022-08-21T04:44:50.424Z,14.60
2022-08-21T04:48:53.186Z,14.60
2022-08-21T04:52:57.813Z,14.60
2022-08-21T04:57:04.334Z,14.70
2022-08-21T05:01:10.520Z,14.80
2022-08-21T05:05:13.389Z,14.70
2022-08-21T05:09:19.618Z,14.80
2022-08-21T05:13:23.252Z,14.80
2022-08-21T05:17:26.027Z,14.90
2022-08-21T05:21:28.828Z,14.90
2022-08-21T05:25:32.919Z,15.00
2022-08-21T05:29:37.573Z,15.10
2022-08-21T05:33:40.439Z,15.30
2022-08-21T05:37:46.971Z,15.50
2022-08-21T05:41:51.077Z,16.00
2022-08-21T05:45:53.857Z,16.90
2022-08-21T05:49:56.702Z,19.00
2022-08-21T05:53:59.625Z,22.20
2022-08-21T05:58:03.778Z,23.90
2022-08-21T06:02:08.164Z,25.10
2022-08-21T06:06:11.629Z,26.20
2022-08-21T06:10:14.995Z,27.30
2022-08-21T06:14:20.783Z,25.30
2022-08-21T06:18:23.695Z,26.20
2022-08-21T06:22:26.478Z,27.40
2022-08-21T06:26:30.161Z,28.10
2022-08-21T06:30:35.511Z,26.50
2022-08-21T06:34:38.883Z,26.60
2022-08-21T06:38:42.098Z,27.20
2022-08-21T06:42:53.702Z,26.80
2022-08-21T06:46:57.898Z,26.00
2022-08-21T06:51:00.906Z,24.70
2022-08-21T06:55:04.722Z,24.20
2022-08-21T06:59:07.900Z,24.00
2022-08-21T07:03:19.249Z,23.90
2022-08-21T07:07:22.043Z,23.20
2022-08-21T07:11:26.402Z,22.00
2022-08-21T07:15:30.391Z,23.50
2022-08-21T07:19:34.772Z,24.00
2022-08-21T07:23:40.461Z,22.90
2022-08-21T07:27:43.217Z,23.20
2022-08-21T07:31:46.111Z,22.10
2022-08-21T07:35:50.226Z,22.30
2022-08-21T07:39:53.099Z,21.60
2022-08-21T07:43:56.053Z,21.30
2022-08-21T07:47:59.285Z,22.60
2022-08-21T07:52:04.102Z,23.00
2022-08-21T07:56:09.166Z,24.90
2022-08-21T08:00:16.418Z,25.70
2022-08-21T08:04:24.460Z,27.60
2022-08-21T08:08:30.506Z,28.10
2022-08-21T08:12:33.246Z,27.50
2022-08-21T08:16:36.035Z,29.00
2022-08-21T08:20:38.966Z,30.20
2022-08-21T08:24:43.380Z,32.80
2022-08-21T08:28:47.590Z,34.80
2022-08-21T08:32:50.470Z,34.00
2022-08-21T08:36:53.401Z,33.60
2022-08-21T08:41:03.341Z,35.00
2022-08-21T08:45:09.878Z,35.90
2022-08-21T08:49:17.241Z,36.80
2022-08-21T08:53:25.915Z,36.70
2022-08-21T08:57:31.343Z,36.30
2022-08-21T09:01:38.574Z,34.70
2022-08-21T09:05:47.347Z,33.90
2022-08-21T09:10:05.266Z,33.40
2022-08-21T09:14:18.913Z,32.10
2022-08-21T09:18:37.693Z,31.80
2022-08-21T09:22:50.694Z,32.30
2022-08-21T09:27:09.472Z,32.40
2022-08-21T09:31:18.079Z,31.50
2022-08-21T09:35:23.368Z,28.70
2022-08-21T09:39:29.787Z,29.40
2022-08-21T09:43:33.770Z,29.50
2022-08-21T09:47:38.785Z,30.70
2022-08-21T09:51:53.069Z,28.50
2022-08-21T09:56:15.746Z,27.50
2022-08-21T10:00:25.126Z,27.30
2022-08-21T10:04:32.915Z,28.80
2022-08-21T10:08:36.385Z,27.60
2022-08-21T10:12:47.333Z,26.60
2022-08-21T10:17:01.275Z,26.10
2022-08-21T10:21:16.574Z,27.30
2022-08-21T10:25:23.811Z,29.50
2022-08-21T10:29:41.658Z,30.10
2022-08-21T10:33:48.489Z,31.70
2022-08-21T10:38:07.806Z,29.70
2022-08-21T10:42:16.731Z,31.00
2022-08-21T10:46:28.426Z,29.80
2022-08-21T10:50:38.566Z,27.80
2022-08-21T10:54:52.430Z,27.20
2022-08-21T10:59:07.571Z,27.00
2022-08-21T11:03:15.501Z,27.10
2022-08-21T11:07:23.029Z,28.20
2022-08-21T11:11:36.203Z,31.00
2022-08-21T11:15:45.822Z,30.40
2022-08-21T11:19:55.243Z,31.50
2022-08-21T11:24:05.741Z,31.30
2022-08-21T11:28:15.435Z,32.00
2022-08-21T11:32:32.898Z,32.60
2022-08-21T11:36:47.252Z,32.10
2022-08-21T11:41:07.634Z,32.50
2022-08-21T11:45:26.153Z,32.70
2022-08-21T11:49:44.877Z,30.90
2022-08-21T11:53:54.176Z,29.20
2022-08-21T11:58:01.263Z,28.90
2022-08-21T12:02:12.569Z,28.40
2022-08-21T12:06:24.149Z,27.70
2022-08-21T12:10:34.723Z,27.70
2022-08-21T12:14:40.374Z,28.50
2022-08-21T12:18:45.014Z,33.80
2022-08-21T12:22:53.898Z,42.40
2022-08-21T12:26:59.298Z,46.70
2022-08-21T12:31:02.534Z,48.30
2022-08-21T12:35:15.882Z,48.80
2022-08-21T12:39:32.014Z,48.80
2022-08-21T12:43:38.296Z,48.10
2022-08-21T12:47:49.290Z,46.40
2022-08-21T12:51:57.691Z,48.90
2022-08-21T12:56:04.680Z,43.40
2022-08-21T13:00:12.801Z,44.60
2022-08-21T13:04:21.137Z,48.80
2022-08-21T13:08:28.505Z,48.80
2022-08-21T13:12:32.672Z,46.20
2022-08-21T13:16:36.357Z,40.10
2022-08-21T13:20:43.258Z,34.90
2022-08-21T13:24:49.946Z,32.90
2022-08-21T13:28:52.795Z,37.70
2022-08-21T13:32:59.344Z,42.70
2022-08-21T13:37:05.173Z,44.20
2022-08-21T13:41:17.470Z,43.80
2022-08-21T13:45:26.762Z,43.30
2022-08-21T13:49:33.732Z,43.00
2022-08-21T13:53:38.258Z,39.90
2022-08-21T13:57:42.361Z,35.70
2022-08-21T14:01:55.509Z,37.40
2022-08-21T14:06:00.227Z,35.20
2022-08-21T14:10:05.216Z,33.70
2022-08-21T14:14:22.539Z,31.50
2022-08-21T14:18:26.477Z,30.60
2022-08-21T14:22:38.049Z,30.30
2022-08-21T14:26:48.958Z,29.10
2022-08-21T14:30:54.437Z,28.80
2022-08-21T14:34:59.202Z,28.80
2022-08-21T14:39:02.121Z,29.40
2022-08-21T14:43:05.410Z,29.50
2022-08-21T14:47:10.406Z,29.60
2022-08-21T14:51:13.375Z,29.60
2022-08-21T14:55:17.514Z,29.60
2022-08-21T14:59:20.834Z,29.10
2022-08-21T15:03:24.966Z,29.10
2022-08-21T15:07:27.793Z,29.10
2022-08-21T15:11:42.128Z,29.00
2022-08-21T15:15:49.447Z,28.90
2022-08-21T15:19:53.553Z,28.60
2022-08-21T15:23:56.450Z,28.40
2022-08-21T15:28:01.142Z,28.30
2022-08-21T15:32:17.007Z,28.30
2022-08-21T15:36:21.202Z,28.20
2022-08-21T15:40:24.258Z,28.00
2022-08-21T15:44:29.262Z,27.70
2022-08-21T15:48:32.031Z,27.10
2022-08-21T15:52:36.467Z,27.60
2022-08-21T15:56:41.685Z,27.00
2022-08-21T16:00:45.571Z,27.10
2022-08-21T16:04:48.328Z,27.10
2022-08-21T16:08:52.495Z,26.90
2022-08-21T16:12:59.761Z,26.70
2022-08-21T16:17:02.736Z,26.50
2022-08-21T16:21:05.643Z,26.30
2022-08-21T16:25:10.426Z,26.30
2022-08-21T16:29:13.539Z,26.10
2022-08-21T16:33:23.358Z,25.80
2022-08-21T16:37:26.110Z,25.70
2022-08-21T16:41:34.243Z,25.60
2022-08-21T16:45:36.994Z,25.60
2022-08-21T16:49:40.027Z,25.50
2022-08-21T16:53:43.524Z,25.20
2022-08-21T16:57:47.720Z,25.20
2022-08-21T17:01:50.706Z,25.20
2022-08-21T17:05:53.483Z,24.90
2022-08-21T17:09:56.390Z,24.60
2022-08-21T17:14:05.166Z,24.70
2022-08-21T17:18:11.997Z,24.70
2022-08-21T17:22:14.745Z,24.50
2022-08-21T17:26:19.423Z,24.50
2022-08-21T17:30:23.666Z,24.30
2022-08-21T17:34:28.906Z,24.20
2022-08-21T17:38:34.578Z,24.00
2022-08-21T17:42:37.756Z,23.80
2022-08-21T17:46:42.833Z,23.70
2022-08-21T17:50:45.638Z,23.70
2022-08-21T17:54:48.450Z,23.50
2022-08-21T17:58:52.606Z,23.40
2022-08-21T18:03:03.140Z,23.30
2022-08-21T18:07:06.498Z,23.20
2022-08-21T18:11:10.373Z,23.00
2022-08-21T18:15:19.095Z,22.80
2022-08-21T18:19:25.942Z,22.60
2022-08-21T18:23:43.464Z,22.50
2022-08-21T18:27:48.367Z,22.30
2022-08-21T18:31:51.210Z,22.20
2022-08-21T18:35:55.336Z,22.10
2022-08-21T18:40:01.373Z,21.90
2022-08-21T18:44:04.538Z,21.80
2022-08-21T18:48:09.222Z,21.60
2022-08-21T18:52:17.837Z,21.50
2022-08-21T18:56:23.343Z,21.30
2022-08-21T19:00:30.361Z,20.80
2022-08-21T19:04:43.914Z,20.60
2022-08-21T19:08:48.638Z,20.60
2022-08-21T19:12:51.873Z,20.70
2022-08-21T19:16:54.726Z,20.70
2022-08-21T19:20:57.878Z,20.60
2022-08-21T19:25:01.991Z,20.20
2022-08-21T19:29:09.372Z,19.80
2022-08-21T19:33:23.389Z,19.50
2022-08-21T19:37:26.829Z,19.50
2022-08-21T19:41:36.809Z,19.50
2022-08-21T19:45:39.919Z,19.40
2022-08-21T19:49:46.410Z,18.90
2022-08-21T19:53:53.795Z,18.90
2022-08-21T19:58:01.962Z,18.90
2022-08-21T20:02:06.024Z,19.00
2022-08-21T20:06:09.510Z,18.90
2022-08-21T20:10:12.342Z,19.00
2022-08-21T20:14:20.043Z,18.90
2022-08-21T20:18:27.069Z,18.90
2022-08-21T20:22:30.034Z,18.90
2022-08-21T20:26:33.049Z,18.70
2022-08-21T20:30:37.550Z,18.70
2022-08-21T20:34:52.019Z,18.70
2022-08-21T20:38:55.077Z,18.40
2022-08-21T20:42:58.431Z,18.30
2022-08-21T20:47:08.828Z,18.10
2022-08-21T20:51:15.081Z,17.80
2022-08-21T20:59:50.314Z,17.20
2022-08-21T21:04:02.905Z,17.20
2022-08-21T21:08:11.802Z,17.30
2022-08-21T21:12:27.907Z,17.10
2022-08-21T21:16:36.639Z,17.10
2022-08-21T21:20:48.062Z,17.10
2022-08-21T21:24:57.637Z,16.90
2022-08-21T21:29:03.649Z,16.80
2022-08-21T21:33:08.067Z,16.80
2022-08-21T21:37:25.361Z,16.80
2022-08-21T21:41:34.937Z,16.80
2022-08-21T21:46:00.903Z,17.10
2022-08-21T21:50:22.511Z,16.90
2022-08-21T21:59:24.375Z,16.90
2022-08-21T22:03:39.284Z,16.60
2022-08-21T22:07:50.388Z,16.70
2022-08-21T22:12:04.101Z,16.80
2022-08-21T22:16:08.538Z,16.80
2022-08-21T22:20:29.509Z,16.70
2022-08-21T22:24:35.549Z,16.50
2022-08-21T22:28:43.705Z,16.30
2022-08-21T22:32:50.274Z,16.10
2022-08-21T22:36:59.290Z,16.00
2022-08-21T22:41:13.309Z,15.70
2022-08-21T22:45:21.808Z,16.00
2022-08-21T22:49:32.251Z,16.00
2022-08-21T22:53:46.678Z,15.70
2022-08-21T22:58:05.417Z,15.60
2022-08-21T23:02:26.258Z,15.40
2022-08-21T23:06:32.645Z,15.40
2022-08-21T23:10:43.020Z,15.30
2022-08-21T23:14:45.794Z,15.20
2022-08-21T23:19:09.218Z,15.20
2022-08-21T23:23:20.149Z,15.40
2022-08-21T23:27:35.750Z,15.40
2022-08-21T23:31:46.918Z,15.30
2022-08-21T23:36:21.682Z,15.50
2022-08-21T23:40:38.715Z,15.40
2022-08-21T23:44:58.698Z,15.40
2022-08-21T23:53:52.402Z,15.10
2022-08-21T23:58:10.164Z,15.00
